createdAt,value
2017-08-31T00:00:27.028Z,0
2017-08-31T00:01:07.600Z,0
2017-08-31T00:01:48.175Z,0
2017-08-31T00:02:28.748Z,0
2017-08-31T00:03:09.322Z,0
2017-08-31T00:03:49.921Z,0
2017-08-31T00:04:30.500Z,0
2017-08-31T00:05:11.083Z,0
2017-08-31T00:05:51.672Z,0
2017-08-31T00:06:32.241Z,0
2017-08-31T00:07:12.836Z,0
2017-08-31T00:07:53.408Z,0
2017-08-31T00:08:33.982Z,0
2017-08-31T00:09:14.560Z,0
2017-08-31T00:09:55.135Z,0
2017-08-31T00:10:35.723Z,0
2017-08-31T00:11:30.936Z,0
2017-08-31T00:12:11.516Z,0
2017-08-31T00:12:52.106Z,0
2017-08-31T00:13:32.695Z,0
2017-08-31T00:14:13.276Z,0
2017-08-31T00:14:53.856Z,0
2017-08-31T00:15:34.444Z,0
2017-08-31T00:16:15.027Z,0
2017-08-31T00:16:55.595Z,0
2017-08-31T00:17:36.170Z,0
2017-08-31T00:18:16.755Z,0
2017-08-31T00:18:57.339Z,0
2017-08-31T00:19:37.918Z,0
2017-08-31T00:20:18.522Z,0
2017-08-31T00:20:59.089Z,0
2017-08-31T00:21:39.659Z,0
2017-08-31T00:22:20.245Z,0
2017-08-31T00:23:00.818Z,0
2017-08-31T00:23:41.386Z,0
2017-08-31T00:24:21.964Z,0
2017-08-31T00:25:02.563Z,0
2017-08-31T00:25:43.149Z,0
2017-08-31T00:26:23.737Z,0
2017-08-31T00:27:04.321Z,0
2017-08-31T00:27:44.896Z,0
2017-08-31T00:28:25.488Z,0
2017-08-31T00:29:06.072Z,0
2017-08-31T00:29:46.644Z,0
2017-08-31T00:30:27.214Z,0
2017-08-31T00:31:07.800Z,0
2017-08-31T00:31:48.374Z,0
2017-08-31T00:32:28.928Z,0
2017-08-31T00:33:09.542Z,0
2017-08-31T00:33:50.172Z,0
2017-08-31T00:34:30.815Z,0
2017-08-31T00:35:11.405Z,0
2017-08-31T00:35:52.032Z,0
2017-08-31T00:36:32.616Z,0
2017-08-31T00:37:13.203Z,0
2017-08-31T00:37:53.779Z,0
2017-08-31T00:40:11.746Z,0
2017-08-31T00:40:52.328Z,0
2017-08-31T00:41:32.920Z,0
2017-08-31T00:42:13.491Z,0
2017-08-31T00:42:54.068Z,0
2017-08-31T00:43:34.646Z,0
2017-08-31T00:44:15.236Z,0
2017-08-31T00:44:55.823Z,0
2017-08-31T00:45:36.417Z,0
2017-08-31T00:46:17.026Z,0
2017-08-31T00:46:57.593Z,0
2017-08-31T00:47:38.177Z,0
2017-08-31T00:48:18.746Z,0
2017-08-31T00:48:59.322Z,0
2017-08-31T00:49:39.897Z,0
2017-08-31T00:50:20.489Z,0
2017-08-31T00:51:01.073Z,0
2017-08-31T00:51:41.651Z,0
2017-08-31T00:52:22.231Z,0
2017-08-31T00:53:02.809Z,0
2017-08-31T00:53:43.392Z,0
2017-08-31T00:54:23.977Z,0
2017-08-31T00:55:04.543Z,0
2017-08-31T00:55:45.132Z,0
2017-08-31T00:56:25.716Z,0
2017-08-31T00:57:06.297Z,0
2017-08-31T00:57:46.899Z,0
2017-08-31T00:58:27.471Z,0
2017-08-31T01:00:55.589Z,0
2017-08-31T01:01:36.189Z,0
2017-08-31T01:02:16.767Z,0
2017-08-31T01:02:57.351Z,0
2017-08-31T01:03:37.927Z,0
2017-08-31T01:04:18.523Z,0
2017-08-31T01:04:59.116Z,0
2017-08-31T01:05:39.712Z,0
2017-08-31T01:06:20.301Z,0
2017-08-31T01:07:00.877Z,0
2017-08-31T01:07:41.468Z,0
2017-08-31T01:08:22.039Z,0
2017-08-31T01:09:02.623Z,0
2017-08-31T01:09:43.190Z,0
2017-08-31T01:10:23.786Z,0
2017-08-31T01:11:04.351Z,0
2017-08-31T01:11:44.934Z,0
2017-08-31T01:12:25.522Z,0
2017-08-31T01:13:06.097Z,0
2017-08-31T01:13:46.686Z,0
2017-08-31T01:14:27.266Z,0
2017-08-31T01:15:07.845Z,0
2017-08-31T01:15:48.415Z,0
2017-08-31T01:16:28.998Z,0
2017-08-31T01:17:09.556Z,0
2017-08-31T01:17:50.145Z,0
2017-08-31T01:18:30.716Z,0
2017-08-31T01:19:11.304Z,0
2017-08-31T01:21:49.622Z,0
2017-08-31T01:22:30.208Z,0
2017-08-31T01:23:10.779Z,0
2017-08-31T01:23:51.361Z,0
2017-08-31T01:24:31.970Z,0
2017-08-31T01:25:12.546Z,0
2017-08-31T01:25:53.120Z,0
2017-08-31T01:26:33.706Z,0
2017-08-31T01:27:14.291Z,0
2017-08-31T01:27:54.882Z,0
2017-08-31T01:28:35.454Z,0
2017-08-31T01:29:16.032Z,0
2017-08-31T01:29:56.613Z,0
2017-08-31T01:30:37.191Z,0
2017-08-31T01:31:17.784Z,0
2017-08-31T01:31:58.362Z,0
2017-08-31T01:32:38.946Z,0
2017-08-31T01:33:19.529Z,0
2017-08-31T01:34:00.113Z,0
2017-08-31T01:34:40.694Z,0
2017-08-31T01:35:21.258Z,0
2017-08-31T01:36:01.848Z,0
2017-08-31T01:36:42.464Z,0
2017-08-31T01:37:22.994Z,0
2017-08-31T01:38:10.267Z,0
2017-08-31T01:38:50.854Z,0
2017-08-31T01:39:31.442Z,0
2017-08-31T01:40:12.026Z,0
2017-08-31T01:40:52.604Z,0
2017-08-31T01:41:33.188Z,0
2017-08-31T01:42:13.771Z,0
2017-08-31T01:42:54.346Z,0
2017-08-31T01:43:34.932Z,0
2017-08-31T01:44:15.524Z,0
2017-08-31T01:44:56.095Z,0
2017-08-31T01:45:36.687Z,0
2017-08-31T01:46:17.283Z,0
2017-08-31T01:46:57.868Z,0
2017-08-31T01:47:38.447Z,0
2017-08-31T01:48:19.045Z,0
2017-08-31T01:48:59.619Z,0
2017-08-31T01:49:40.206Z,0
2017-08-31T01:50:20.815Z,0
2017-08-31T01:51:01.398Z,0
2017-08-31T01:51:41.967Z,0
2017-08-31T01:52:22.549Z,0
2017-08-31T01:53:03.139Z,0
2017-08-31T01:53:43.721Z,0
2017-08-31T01:54:24.302Z,0
2017-08-31T01:55:04.877Z,0
2017-08-31T01:55:45.458Z,0
2017-08-31T01:56:26.042Z,0
2017-08-31T01:57:06.639Z,0
2017-08-31T01:57:47.198Z,0
2017-08-31T01:58:27.772Z,0
2017-08-31T01:59:08.380Z,0
2017-08-31T01:59:48.948Z,0
2017-08-31T02:00:29.549Z,0
2017-08-31T02:01:10.132Z,0
2017-08-31T02:01:50.709Z,0
2017-08-31T02:02:31.297Z,0
2017-08-31T02:03:11.884Z,0
2017-08-31T02:03:52.459Z,0
2017-08-31T02:04:33.050Z,0
2017-08-31T02:05:13.641Z,0
2017-08-31T02:05:54.220Z,0
2017-08-31T02:06:34.806Z,0
2017-08-31T02:07:15.392Z,0
2017-08-31T02:07:55.985Z,0
2017-08-31T02:08:36.558Z,0
2017-08-31T02:09:17.146Z,0
2017-08-31T02:09:57.730Z,0
2017-08-31T02:10:38.306Z,0
2017-08-31T02:11:18.900Z,0
2017-08-31T02:11:59.486Z,0
2017-08-31T02:12:40.073Z,0
2017-08-31T02:13:20.661Z,0
2017-08-31T02:14:01.242Z,0
2017-08-31T02:14:41.830Z,0
2017-08-31T02:15:22.413Z,0
2017-08-31T02:16:02.990Z,0
2017-08-31T02:16:43.567Z,0
2017-08-31T02:17:24.158Z,0
2017-08-31T02:18:04.732Z,0
2017-08-31T02:18:45.310Z,0
2017-08-31T02:19:25.890Z,0
2017-08-31T02:20:06.490Z,0
2017-08-31T02:20:47.071Z,0
2017-08-31T02:21:27.671Z,0
2017-08-31T02:22:08.241Z,0
2017-08-31T02:22:48.832Z,0
2017-08-31T02:23:29.409Z,0
2017-08-31T02:24:09.997Z,0
2017-08-31T02:24:50.581Z,0
2017-08-31T02:25:31.168Z,0
2017-08-31T02:26:11.750Z,0
2017-08-31T02:26:52.333Z,0
2017-08-31T02:27:32.916Z,0
2017-08-31T02:28:13.501Z,0
2017-08-31T02:28:54.083Z,0
2017-08-31T02:29:34.681Z,0
2017-08-31T02:30:15.267Z,0
2017-08-31T02:30:55.862Z,0
2017-08-31T02:31:36.447Z,0
2017-08-31T02:32:17.019Z,0
2017-08-31T02:32:57.606Z,0
2017-08-31T02:33:38.190Z,0
2017-08-31T02:34:18.776Z,0
2017-08-31T02:34:59.364Z,0
2017-08-31T02:35:39.952Z,0
2017-08-31T02:36:20.530Z,0
2017-08-31T02:37:01.113Z,0
2017-08-31T02:37:41.698Z,0
2017-08-31T02:38:22.284Z,0
2017-08-31T02:39:02.858Z,0
2017-08-31T02:39:44.159Z,0
2017-08-31T02:40:24.725Z,0
2017-08-31T02:41:05.297Z,0
2017-08-31T02:41:45.887Z,0
2017-08-31T02:42:26.482Z,0
2017-08-31T02:43:07.048Z,0
2017-08-31T02:43:47.642Z,0
2017-08-31T02:44:28.216Z,0
2017-08-31T02:45:08.796Z,0
2017-08-31T02:45:49.377Z,0
2017-08-31T02:46:29.965Z,0
2017-08-31T02:47:10.545Z,0
2017-08-31T02:47:51.126Z,0
2017-08-31T02:48:31.696Z,0
2017-08-31T02:49:12.268Z,0
2017-08-31T02:49:52.838Z,0
2017-08-31T02:50:33.414Z,0
2017-08-31T02:51:13.993Z,0
2017-08-31T02:51:54.576Z,0
2017-08-31T02:52:35.156Z,0
2017-08-31T02:53:15.818Z,0
2017-08-31T02:53:56.449Z,0
2017-08-31T02:54:37.061Z,0
2017-08-31T02:55:17.642Z,0
2017-08-31T02:55:58.223Z,0
2017-08-31T02:56:38.906Z,0
2017-08-31T02:57:19.606Z,0
2017-08-31T02:58:00.321Z,0
2017-08-31T02:58:41.043Z,0
2017-08-31T02:59:21.797Z,0
2017-08-31T03:00:02.650Z,0
2017-08-31T03:00:43.379Z,0
2017-08-31T03:01:24.100Z,0
2017-08-31T03:02:04.846Z,0
2017-08-31T03:02:45.682Z,0
2017-08-31T03:03:26.252Z,0
2017-08-31T03:04:06.877Z,0
2017-08-31T03:04:47.459Z,0
2017-08-31T03:05:28.030Z,0
2017-08-31T03:06:08.945Z,0
2017-08-31T03:06:49.523Z,0
2017-08-31T03:07:30.144Z,0
2017-08-31T03:08:10.725Z,0
2017-08-31T03:08:51.319Z,0
2017-08-31T03:09:31.903Z,0
2017-08-31T03:10:12.480Z,0
2017-08-31T03:10:53.064Z,0
2017-08-31T03:11:33.637Z,0
2017-08-31T03:12:14.920Z,0
2017-08-31T03:12:55.502Z,0
2017-08-31T03:13:36.071Z,0
2017-08-31T03:14:16.658Z,0
2017-08-31T03:14:57.236Z,0
2017-08-31T03:15:37.809Z,0
2017-08-31T03:16:18.381Z,0
2017-08-31T03:16:59.033Z,0
2017-08-31T03:17:39.614Z,0
2017-08-31T03:18:20.196Z,0
2017-08-31T03:19:00.764Z,0
2017-08-31T03:19:41.469Z,0
2017-08-31T03:20:22.949Z,0
2017-08-31T03:21:03.590Z,0
2017-08-31T03:21:44.275Z,0
2017-08-31T03:22:24.833Z,0
2017-08-31T03:23:05.403Z,0
2017-08-31T03:23:45.973Z,0
2017-08-31T03:24:26.549Z,0
2017-08-31T03:25:07.131Z,0
2017-08-31T03:25:47.719Z,0
2017-08-31T03:26:28.304Z,0
2017-08-31T03:27:08.982Z,0
2017-08-31T03:27:49.739Z,0
2017-08-31T03:28:30.378Z,0
2017-08-31T03:29:11.029Z,0
2017-08-31T03:29:51.611Z,0
2017-08-31T03:30:32.298Z,0
2017-08-31T03:31:12.986Z,0
2017-08-31T03:31:53.693Z,0
2017-08-31T03:32:34.289Z,0
2017-08-31T03:33:14.976Z,0
2017-08-31T03:33:55.558Z,0
2017-08-31T03:34:36.292Z,0
2017-08-31T03:35:16.871Z,0
2017-08-31T03:35:57.553Z,0
2017-08-31T03:36:38.443Z,0
2017-08-31T03:37:19.014Z,0
2017-08-31T03:37:59.768Z,0
2017-08-31T03:38:40.631Z,0
2017-08-31T03:39:21.324Z,0
2017-08-31T03:40:01.905Z,0
2017-08-31T03:40:42.539Z,0
2017-08-31T03:41:23.160Z,0
2017-08-31T03:42:03.745Z,0
2017-08-31T03:42:44.396Z,0
2017-08-31T03:43:24.985Z,0
2017-08-31T03:44:05.568Z,0
2017-08-31T03:44:46.154Z,0
2017-08-31T03:45:26.727Z,0
2017-08-31T03:46:07.452Z,0
2017-08-31T03:46:48.049Z,0
2017-08-31T03:47:28.625Z,0
2017-08-31T03:48:09.204Z,0
2017-08-31T03:48:49.794Z,0
2017-08-31T03:49:30.375Z,0
2017-08-31T03:50:10.959Z,0
2017-08-31T03:50:51.529Z,0
2017-08-31T03:51:32.121Z,0
2017-08-31T03:52:12.717Z,0
2017-08-31T03:52:53.289Z,0
2017-08-31T03:53:33.863Z,0
2017-08-31T03:54:14.447Z,0
2017-08-31T03:54:55.028Z,0
2017-08-31T03:55:35.607Z,0
2017-08-31T03:56:16.188Z,0
2017-08-31T03:56:56.764Z,0
2017-08-31T03:57:37.351Z,0
2017-08-31T04:00:10.600Z,0
2017-08-31T04:00:51.172Z,0
2017-08-31T04:01:31.752Z,0
2017-08-31T04:02:12.337Z,0
2017-08-31T04:02:52.911Z,0
2017-08-31T04:03:33.504Z,0
2017-08-31T04:04:14.083Z,0
2017-08-31T04:04:54.655Z,0
2017-08-31T04:05:35.242Z,0
2017-08-31T04:06:15.820Z,0
2017-08-31T04:06:56.396Z,0
2017-08-31T04:07:36.965Z,0
2017-08-31T04:08:17.553Z,0
2017-08-31T04:08:58.136Z,0
2017-08-31T04:09:38.717Z,0
2017-08-31T04:10:19.293Z,0
2017-08-31T04:10:59.874Z,0
2017-08-31T04:11:40.471Z,0
2017-08-31T04:12:21.051Z,0
2017-08-31T04:13:01.631Z,0
2017-08-31T04:13:42.201Z,0
2017-08-31T04:14:22.785Z,0
2017-08-31T04:15:03.370Z,0
2017-08-31T04:15:43.958Z,0
2017-08-31T04:16:24.530Z,0
2017-08-31T04:19:02.873Z,0
2017-08-31T04:19:43.454Z,0
2017-08-31T04:20:24.046Z,0
2017-08-31T04:21:04.623Z,0
2017-08-31T04:21:45.210Z,0
2017-08-31T04:22:25.761Z,0
2017-08-31T04:23:06.332Z,5
2017-08-31T04:23:46.915Z,5
2017-08-31T04:24:27.504Z,5
2017-08-31T04:25:08.082Z,5
2017-08-31T04:25:48.656Z,5
2017-08-31T04:26:29.234Z,5
2017-08-31T04:27:09.816Z,5
2017-08-31T04:27:50.403Z,5
2017-08-31T04:28:30.978Z,5
2017-08-31T04:29:11.550Z,5
2017-08-31T04:29:52.142Z,5
2017-08-31T04:30:32.723Z,5
2017-08-31T04:31:13.307Z,5
2017-08-31T04:32:08.640Z,5
2017-08-31T04:32:49.217Z,5
2017-08-31T04:33:29.796Z,5
2017-08-31T04:34:10.385Z,5
2017-08-31T04:34:50.963Z,10
2017-08-31T04:35:31.549Z,10
2017-08-31T04:36:12.129Z,10
2017-08-31T04:36:52.720Z,15
2017-08-31T04:37:33.297Z,15
2017-08-31T04:38:13.872Z,15
2017-08-31T04:38:54.462Z,15
2017-08-31T04:39:35.034Z,20
2017-08-31T04:40:15.608Z,20
2017-08-31T04:40:56.184Z,20
2017-08-31T04:41:36.764Z,20
2017-08-31T04:42:17.363Z,25
2017-08-31T04:42:57.929Z,25
2017-08-31T04:43:38.513Z,25
2017-08-31T04:44:19.094Z,30
2017-08-31T04:44:59.668Z,30
2017-08-31T04:45:40.256Z,30
2017-08-31T04:46:20.839Z,35
2017-08-31T04:47:01.413Z,35
2017-08-31T04:47:41.981Z,40
2017-08-31T04:48:22.569Z,40
2017-08-31T04:49:03.155Z,45
2017-08-31T04:49:43.726Z,45
2017-08-31T04:50:24.313Z,50
2017-08-31T04:51:04.892Z,50
2017-08-31T04:51:45.475Z,55
2017-08-31T04:52:26.057Z,60
2017-08-31T04:53:06.645Z,65
2017-08-31T04:53:47.223Z,65
2017-08-31T04:54:27.797Z,65
2017-08-31T04:55:08.364Z,70
2017-08-31T04:55:48.948Z,75
2017-08-31T04:56:29.523Z,80
2017-08-31T04:57:10.116Z,80
2017-08-31T04:57:50.696Z,85
2017-08-31T04:58:31.297Z,85
2017-08-31T04:59:11.892Z,90
2017-08-31T04:59:52.478Z,95
2017-08-31T05:00:33.054Z,100
2017-08-31T05:01:13.632Z,105
2017-08-31T05:01:54.220Z,110
2017-08-31T05:02:34.816Z,115
2017-08-31T05:03:15.378Z,115
2017-08-31T05:03:55.964Z,120
2017-08-31T05:04:36.546Z,125
2017-08-31T05:05:17.125Z,125
2017-08-31T05:05:57.719Z,130
2017-08-31T05:06:38.295Z,135
2017-08-31T05:07:18.882Z,140
2017-08-31T05:07:59.463Z,145
2017-08-31T05:08:40.048Z,150
2017-08-31T05:09:20.626Z,150
2017-08-31T05:10:01.205Z,155
2017-08-31T05:10:41.785Z,160
2017-08-31T05:11:22.383Z,170
2017-08-31T05:12:02.936Z,175
2017-08-31T05:12:43.526Z,180
2017-08-31T05:13:24.114Z,180
2017-08-31T05:14:04.688Z,185
2017-08-31T05:14:45.267Z,195
2017-08-31T05:15:25.848Z,200
2017-08-31T05:16:06.437Z,205
2017-08-31T05:16:47.023Z,210
2017-08-31T05:17:27.599Z,220
2017-08-31T05:18:08.172Z,225
2017-08-31T05:18:48.762Z,230
2017-08-31T05:19:29.347Z,235
2017-08-31T05:20:09.912Z,245
2017-08-31T05:20:50.494Z,250
2017-08-31T05:21:31.078Z,255
2017-08-31T05:22:11.684Z,260
2017-08-31T05:22:52.280Z,265
2017-08-31T05:23:32.844Z,275
2017-08-31T05:24:13.428Z,280
2017-08-31T05:24:54.004Z,285
2017-08-31T05:25:34.583Z,290
2017-08-31T05:26:15.160Z,295
2017-08-31T05:26:55.748Z,295
2017-08-31T05:27:36.325Z,300
2017-08-31T05:28:16.900Z,305
2017-08-31T05:28:57.481Z,305
2017-08-31T05:29:38.060Z,310
2017-08-31T05:30:18.640Z,315
2017-08-31T05:30:59.218Z,320
2017-08-31T05:31:39.801Z,330
2017-08-31T05:32:20.383Z,335
2017-08-31T05:33:00.963Z,340
2017-08-31T05:35:18.936Z,365
2017-08-31T05:35:59.513Z,375
2017-08-31T05:38:37.783Z,390
2017-08-31T05:39:18.366Z,395
2017-08-31T05:39:58.939Z,400
2017-08-31T05:40:39.524Z,405
2017-08-31T05:41:20.106Z,415
2017-08-31T05:42:00.684Z,430
2017-08-31T05:42:41.259Z,430
2017-08-31T05:43:21.850Z,445
2017-08-31T05:44:02.433Z,460
2017-08-31T05:44:43.012Z,480
2017-08-31T05:45:23.596Z,510
2017-08-31T05:46:04.186Z,550
2017-08-31T05:46:44.772Z,590
2017-08-31T05:47:25.381Z,625
2017-08-31T05:48:05.938Z,655
2017-08-31T05:48:46.522Z,675
2017-08-31T05:51:24.847Z,715
2017-08-31T05:52:05.428Z,710
2017-08-31T05:52:46.009Z,695
2017-08-31T05:53:26.590Z,685
2017-08-31T05:54:07.180Z,675
2017-08-31T05:54:47.763Z,670
2017-08-31T05:55:28.347Z,670
2017-08-31T05:56:08.927Z,675
2017-08-31T05:56:49.526Z,670
2017-08-31T05:57:30.091Z,660
2017-08-31T05:58:10.676Z,660
2017-08-31T05:58:51.259Z,665
2017-08-31T05:59:31.840Z,665
2017-08-31T06:00:12.416Z,660
2017-08-31T06:00:53.009Z,675
2017-08-31T06:01:33.578Z,680
2017-08-31T06:02:14.145Z,690
2017-08-31T06:02:54.734Z,690
2017-08-31T06:03:35.313Z,605
2017-08-31T06:04:15.892Z,600
2017-08-31T06:04:56.477Z,500
2017-08-31T06:05:37.054Z,485
2017-08-31T06:06:17.637Z,500
2017-08-31T06:08:50.855Z,400
2017-08-31T06:09:31.437Z,370
2017-08-31T06:10:12.023Z,380
2017-08-31T06:10:52.605Z,505
2017-08-31T06:11:33.197Z,325
2017-08-31T06:12:13.780Z,325
2017-08-31T06:12:54.363Z,320
2017-08-31T06:13:34.944Z,335
2017-08-31T06:14:15.527Z,345
2017-08-31T06:14:56.119Z,360
2017-08-31T06:15:36.691Z,375
2017-08-31T06:16:17.282Z,390
2017-08-31T06:16:57.877Z,400
2017-08-31T06:17:38.447Z,410
2017-08-31T06:18:19.045Z,420
2017-08-31T06:18:59.631Z,425
2017-08-31T06:19:40.220Z,435
2017-08-31T06:20:20.796Z,455
2017-08-31T06:21:01.383Z,480
2017-08-31T06:21:41.953Z,490
2017-08-31T06:22:22.531Z,515
2017-08-31T06:23:03.110Z,540
2017-08-31T06:23:43.692Z,560
2017-08-31T06:24:24.278Z,585
2017-08-31T06:25:04.867Z,610
2017-08-31T06:25:45.445Z,615
2017-08-31T06:26:26.049Z,615
2017-08-31T06:27:06.623Z,595
2017-08-31T06:27:47.195Z,595
2017-08-31T06:28:27.772Z,600
2017-08-31T06:29:08.359Z,615
2017-08-31T06:29:48.950Z,730
2017-08-31T06:30:29.534Z,605
2017-08-31T06:31:10.114Z,795
2017-08-31T06:31:50.707Z,580
2017-08-31T06:32:31.282Z,560
2017-08-31T06:33:11.878Z,535
2017-08-31T06:33:52.468Z,520
2017-08-31T06:34:33.053Z,475
2017-08-31T06:35:13.661Z,425
2017-08-31T06:35:54.229Z,385
2017-08-31T06:36:34.817Z,380
2017-08-31T06:37:15.401Z,350
2017-08-31T06:37:55.976Z,335
2017-08-31T06:38:36.564Z,325
2017-08-31T06:39:17.156Z,325
2017-08-31T06:39:57.736Z,335
2017-08-31T06:40:38.328Z,350
2017-08-31T06:41:18.919Z,380
2017-08-31T06:41:59.497Z,365
2017-08-31T06:42:40.070Z,405
2017-08-31T06:43:20.657Z,390
2017-08-31T06:44:01.237Z,400
2017-08-31T06:44:41.849Z,405
2017-08-31T06:45:22.415Z,420
2017-08-31T06:46:02.995Z,440
2017-08-31T06:46:43.577Z,465
2017-08-31T06:47:24.162Z,485
2017-08-31T06:48:04.751Z,495
2017-08-31T06:48:45.316Z,510
2017-08-31T06:49:25.906Z,525
2017-08-31T06:50:06.474Z,545
2017-08-31T06:50:47.055Z,565
2017-08-31T06:51:28.368Z,620
2017-08-31T06:52:08.948Z,680
2017-08-31T06:52:49.537Z,765
2017-08-31T06:53:30.114Z,720
2017-08-31T06:54:10.698Z,780
2017-08-31T06:54:51.288Z,865
2017-08-31T06:55:31.869Z,820
2017-08-31T06:56:12.438Z,895
2017-08-31T06:56:53.025Z,790
2017-08-31T06:57:33.608Z,795
2017-08-31T06:58:14.180Z,885
2017-08-31T06:58:54.771Z,775
2017-08-31T06:59:50.265Z,820
2017-08-31T07:00:30.845Z,765
2017-08-31T07:01:11.406Z,715
2017-08-31T07:01:51.990Z,570
2017-08-31T07:02:32.560Z,495
2017-08-31T07:03:13.144Z,460
2017-08-31T07:03:54.266Z,455
2017-08-31T07:04:34.853Z,435
2017-08-31T07:05:15.433Z,430
2017-08-31T07:05:56.031Z,515
2017-08-31T07:06:36.602Z,430
2017-08-31T07:07:17.190Z,425
2017-08-31T07:07:57.767Z,425
2017-08-31T07:08:38.352Z,425
2017-08-31T07:09:18.936Z,430
2017-08-31T07:09:59.523Z,435
2017-08-31T07:10:40.113Z,445
2017-08-31T07:11:20.709Z,455
2017-08-31T07:12:01.288Z,460
2017-08-31T07:12:41.882Z,475
2017-08-31T07:13:22.456Z,480
2017-08-31T07:14:03.032Z,465
2017-08-31T07:14:43.634Z,450
2017-08-31T07:15:24.222Z,450
2017-08-31T07:16:04.873Z,450
2017-08-31T07:16:45.440Z,445
2017-08-31T07:17:26.028Z,440
2017-08-31T07:18:06.615Z,430
2017-08-31T07:18:48.024Z,420
2017-08-31T07:19:28.613Z,405
2017-08-31T07:20:09.186Z,390
2017-08-31T07:20:49.769Z,375
2017-08-31T07:21:30.358Z,360
2017-08-31T07:22:10.940Z,355
2017-08-31T07:22:51.516Z,345
2017-08-31T07:23:32.097Z,345
2017-08-31T07:24:12.688Z,325
2017-08-31T07:24:53.268Z,305
2017-08-31T07:25:33.861Z,295
2017-08-31T07:26:14.442Z,285
2017-08-31T07:26:55.023Z,280
2017-08-31T07:27:35.630Z,280
2017-08-31T07:28:16.189Z,280
2017-08-31T07:28:56.765Z,285
2017-08-31T07:29:37.347Z,290
2017-08-31T07:30:17.935Z,295
2017-08-31T07:30:58.514Z,300
2017-08-31T07:31:39.083Z,310
2017-08-31T07:32:19.683Z,320
2017-08-31T07:33:00.296Z,330
2017-08-31T07:33:40.882Z,345
2017-08-31T07:34:21.494Z,365
2017-08-31T07:35:02.078Z,395
2017-08-31T07:35:42.665Z,430
2017-08-31T07:36:23.237Z,460
2017-08-31T07:37:03.818Z,500
2017-08-31T07:37:44.401Z,520
2017-08-31T07:38:24.982Z,525
2017-08-31T07:39:05.571Z,510
2017-08-31T07:39:46.160Z,490
2017-08-31T07:40:26.743Z,470
2017-08-31T07:41:07.317Z,450
2017-08-31T07:41:47.911Z,435
2017-08-31T07:42:28.495Z,440
2017-08-31T07:43:09.088Z,445
2017-08-31T07:43:49.668Z,470
2017-08-31T07:44:30.250Z,500
2017-08-31T07:45:10.820Z,545
2017-08-31T07:45:51.421Z,590
2017-08-31T07:46:31.992Z,630
2017-08-31T07:47:12.562Z,680
2017-08-31T07:47:53.164Z,725
2017-08-31T07:48:33.745Z,740
2017-08-31T07:49:14.338Z,730
2017-08-31T07:49:54.927Z,700
2017-08-31T07:50:35.514Z,650
2017-08-31T07:51:16.097Z,610
2017-08-31T07:51:56.692Z,580
2017-08-31T07:52:37.281Z,570
2017-08-31T07:53:17.861Z,580
2017-08-31T07:53:58.442Z,610
2017-08-31T07:54:39.019Z,650
2017-08-31T07:55:19.600Z,685
2017-08-31T07:56:00.196Z,700
2017-08-31T07:56:40.782Z,695
2017-08-31T07:57:21.356Z,680
2017-08-31T07:58:01.956Z,660
2017-08-31T07:58:42.528Z,650
2017-08-31T07:59:23.131Z,640
2017-08-31T08:00:03.711Z,635
2017-08-31T08:00:44.292Z,625
2017-08-31T08:01:24.944Z,605
2017-08-31T08:02:05.526Z,590
2017-08-31T08:02:46.113Z,575
2017-08-31T08:03:26.703Z,580
2017-08-31T08:04:07.282Z,590
2017-08-31T08:04:47.868Z,615
2017-08-31T08:05:28.456Z,640
2017-08-31T08:06:09.037Z,650
2017-08-31T08:08:27.014Z,630
2017-08-31T08:09:07.595Z,595
2017-08-31T08:11:45.938Z,630
2017-08-31T08:12:26.514Z,670
2017-08-31T08:13:07.115Z,705
2017-08-31T08:13:47.691Z,740
2017-08-31T08:14:28.281Z,750
2017-08-31T08:15:08.868Z,755
2017-08-31T08:15:49.445Z,730
2017-08-31T08:16:30.024Z,685
2017-08-31T08:17:10.614Z,640
2017-08-31T08:17:51.197Z,635
2017-08-31T08:18:31.778Z,650
2017-08-31T08:21:05.004Z,745
2017-08-31T08:21:45.582Z,755
2017-08-31T08:22:26.169Z,740
2017-08-31T08:23:06.750Z,720
2017-08-31T08:23:47.336Z,705
2017-08-31T08:24:27.918Z,695
2017-08-31T08:25:08.502Z,705
2017-08-31T08:25:49.085Z,720
2017-08-31T08:26:29.658Z,770
2017-08-31T08:27:10.246Z,810
2017-08-31T08:27:50.827Z,855
2017-08-31T08:28:31.412Z,875
2017-08-31T08:29:12.014Z,905
2017-08-31T08:29:52.593Z,885
2017-08-31T08:30:33.169Z,860
2017-08-31T08:31:13.769Z,840
2017-08-31T08:31:54.352Z,810
2017-08-31T08:32:34.925Z,790
2017-08-31T08:33:15.504Z,770
2017-08-31T08:33:56.082Z,770
2017-08-31T08:34:36.665Z,780
2017-08-31T08:35:17.250Z,810
2017-08-31T08:35:57.827Z,860
2017-08-31T08:36:38.418Z,900
2017-08-31T08:37:19.008Z,955
2017-08-31T08:37:59.595Z,1030
2017-08-31T08:38:40.179Z,1060
2017-08-31T08:39:20.764Z,1085
2017-08-31T08:40:01.348Z,1095
2017-08-31T08:40:41.929Z,1115
2017-08-31T08:41:22.519Z,1140
2017-08-31T08:42:03.108Z,1185
2017-08-31T08:42:43.697Z,1240
2017-08-31T08:43:38.891Z,1530
2017-08-31T08:44:19.481Z,1470
2017-08-31T08:45:00.075Z,1540
2017-08-31T08:45:40.671Z,1685
2017-08-31T08:46:21.263Z,1700
2017-08-31T08:47:01.837Z,1635
2017-08-31T08:47:42.425Z,1480
2017-08-31T08:48:23.003Z,1275
2017-08-31T08:49:03.591Z,1255
2017-08-31T08:49:44.186Z,1195
2017-08-31T08:50:24.762Z,1180
2017-08-31T08:51:05.348Z,1185
2017-08-31T08:51:45.920Z,1165
2017-08-31T08:52:26.514Z,1140
2017-08-31T08:53:07.115Z,1105
2017-08-31T08:53:47.713Z,1015
2017-08-31T08:54:28.305Z,910
2017-08-31T08:55:08.893Z,810
2017-08-31T08:55:49.480Z,775
2017-08-31T08:56:30.063Z,815
2017-08-31T08:57:10.654Z,845
2017-08-31T08:57:51.250Z,820
2017-08-31T08:58:31.840Z,755
2017-08-31T08:59:12.428Z,710
2017-08-31T08:59:53.018Z,655
2017-08-31T09:00:33.608Z,595
2017-08-31T09:01:14.199Z,550
2017-08-31T09:01:54.777Z,510
2017-08-31T09:02:35.369Z,475
2017-08-31T09:03:15.948Z,460
2017-08-31T09:03:56.540Z,460
2017-08-31T09:04:37.123Z,450
2017-08-31T09:05:25.661Z,445
2017-08-31T09:06:06.249Z,445
2017-08-31T09:06:46.834Z,470
2017-08-31T09:07:27.420Z,500
2017-08-31T09:08:08.002Z,510
2017-08-31T09:09:04.160Z,515
2017-08-31T09:09:44.731Z,535
2017-08-31T09:10:25.316Z,540
2017-08-31T09:11:05.906Z,540
2017-08-31T09:11:46.495Z,525
2017-08-31T09:12:27.080Z,520
2017-08-31T09:13:07.658Z,515
2017-08-31T09:13:48.251Z,520
2017-08-31T09:14:28.833Z,530
2017-08-31T09:15:09.411Z,545
2017-08-31T09:15:49.998Z,565
2017-08-31T09:16:30.592Z,580
2017-08-31T09:17:11.172Z,590
2017-08-31T09:17:51.762Z,585
2017-08-31T09:18:32.349Z,560
2017-08-31T09:19:12.934Z,525
2017-08-31T09:19:53.518Z,500
2017-08-31T09:20:34.097Z,480
2017-08-31T09:21:14.681Z,465
2017-08-31T09:21:55.309Z,450
2017-08-31T09:22:35.885Z,440
2017-08-31T09:23:16.468Z,445
2017-08-31T09:23:57.051Z,460
2017-08-31T09:24:37.634Z,495
2017-08-31T09:25:18.225Z,540
2017-08-31T09:25:58.801Z,590
2017-08-31T09:26:39.387Z,645
2017-08-31T09:27:19.971Z,705
2017-08-31T09:28:00.562Z,790
2017-08-31T09:28:41.145Z,930
2017-08-31T09:29:21.734Z,1065
2017-08-31T09:30:02.321Z,1080
2017-08-31T09:30:42.897Z,970
2017-08-31T09:31:24.580Z,795
2017-08-31T09:32:05.164Z,675
2017-08-31T09:32:45.752Z,570
2017-08-31T09:33:26.335Z,480
2017-08-31T09:34:06.909Z,390
2017-08-31T09:34:47.494Z,320
2017-08-31T09:35:28.077Z,280
2017-08-31T09:36:08.663Z,265
2017-08-31T09:36:49.248Z,270
2017-08-31T09:37:29.829Z,265
2017-08-31T09:38:10.399Z,295
2017-08-31T09:38:50.989Z,330
2017-08-31T09:39:31.575Z,325
2017-08-31T09:40:12.162Z,290
2017-08-31T09:40:52.754Z,275
2017-08-31T09:41:33.342Z,210
2017-08-31T09:42:13.925Z,165
2017-08-31T09:42:54.517Z,135
2017-08-31T09:43:35.096Z,110
2017-08-31T09:44:15.682Z,95
2017-08-31T09:44:56.273Z,75
2017-08-31T09:45:36.858Z,60
2017-08-31T09:46:17.441Z,60
2017-08-31T09:46:58.034Z,65
2017-08-31T09:47:38.621Z,60
2017-08-31T09:48:19.212Z,45
2017-08-31T09:48:59.809Z,40
2017-08-31T09:49:40.419Z,30
2017-08-31T09:50:21.006Z,25
2017-08-31T09:51:01.584Z,25
2017-08-31T09:51:42.170Z,25
2017-08-31T09:52:22.793Z,30
2017-08-31T09:53:03.381Z,50
2017-08-31T09:53:43.945Z,80
2017-08-31T09:54:24.544Z,105
2017-08-31T09:55:05.118Z,130
2017-08-31T09:55:45.698Z,160
2017-08-31T09:56:26.283Z,180
2017-08-31T09:57:06.868Z,200
2017-08-31T09:57:47.454Z,225
2017-08-31T09:58:28.032Z,260
2017-08-31T09:59:08.617Z,290
2017-08-31T09:59:49.202Z,300
2017-08-31T10:00:29.801Z,315
2017-08-31T10:01:10.376Z,310